createdAt,value
2019-03-02T00:06:02.194Z,5.77
2019-03-02T00:08:50.494Z,5.85
2019-03-02T00:11:38.898Z,5.87
2019-03-02T00:14:08.275Z,5.81
2019-03-02T00:16:39.793Z,5.76
2019-03-02T01:18:45.402Z,5.85
2019-03-02T01:21:14.796Z,5.90
2019-03-02T01:26:20.609Z,5.91
2019-03-02T01:50:17.805Z,5.90
2019-03-02T01:52:47.104Z,5.90
2019-03-02T01:55:16.651Z,5.95
2019-03-02T01:57:48.802Z,5.96
2019-03-02T02:00:36.393Z,6.08
2019-03-02T02:03:08.556Z,5.97
2019-03-02T02:05:36.839Z,5.96
2019-03-02T02:08:06.103Z,6.00
2019-03-02T02:10:35.440Z,5.92
2019-03-02T02:13:06.177Z,5.91
2019-03-02T02:15:36.738Z,5.93
2019-03-02T02:18:06.308Z,6.05
2019-03-02T02:20:35.954Z,5.96
2019-03-02T02:23:05.342Z,5.98
2019-03-02T02:25:35.641Z,6.03
2019-03-02T02:28:05.787Z,6.01
2019-03-02T02:30:35.023Z,6.00
2019-03-02T02:33:24.521Z,5.94
2019-03-02T02:35:53.770Z,5.98
2019-03-02T02:38:22.963Z,6.02
2019-03-02T02:40:52.191Z,6.04
2019-03-02T02:43:22.284Z,6.06
2019-03-02T02:45:53.670Z,6.00
2019-03-02T02:48:26.273Z,5.92
2019-03-02T02:50:53.948Z,5.94
2019-03-02T02:53:24.062Z,5.90
2019-03-02T02:55:53.830Z,5.84
2019-03-02T02:58:23.108Z,5.89
2019-03-02T03:00:55.233Z,5.87
2019-03-02T03:03:23.384Z,5.88
2019-03-02T03:05:54.235Z,5.82
2019-03-02T03:08:55.426Z,5.79
2019-03-02T03:11:24.636Z,5.80
2019-03-02T03:13:54.467Z,5.87
2019-03-02T03:16:23.838Z,5.82
2019-03-02T03:18:53.746Z,5.79
2019-03-02T03:21:27.767Z,5.80
2019-03-02T03:24:03.212Z,5.86
2019-03-02T03:26:31.013Z,5.88
2019-03-02T03:28:59.724Z,5.89
2019-03-02T03:31:31.576Z,5.90
2019-03-02T03:33:59.955Z,5.90
2019-03-02T03:36:30.059Z,5.84
2019-03-02T03:49:35.414Z,5.91
2019-03-02T03:52:09.191Z,5.95
2019-03-02T03:54:41.092Z,5.96
2019-03-02T04:10:27.925Z,5.98
2019-03-02T04:13:04.212Z,5.92
2019-03-02T04:15:29.387Z,5.93
2019-03-02T04:17:59.097Z,5.95
2019-03-02T04:44:57.614Z,6.07
2019-03-02T04:47:27.584Z,6.05
2019-03-02T04:49:57.941Z,6.07
2019-03-02T04:52:27.184Z,6.08
2019-03-02T04:54:56.352Z,6.08
2019-03-02T04:57:26.082Z,6.08
2019-03-02T04:59:56.717Z,6.01
2019-03-02T05:10:28.734Z,6.20
2019-03-02T05:12:56.418Z,6.24
2019-03-02T05:15:25.626Z,6.19
2019-03-02T05:17:54.852Z,6.30
2019-03-02T05:20:25.030Z,6.33
2019-03-02T05:22:55.979Z,6.39
2019-03-02T05:25:25.807Z,6.48
2019-03-02T05:27:55.068Z,6.54
2019-03-02T05:30:26.845Z,6.48
2019-03-02T05:32:55.994Z,6.48
2019-03-02T05:35:25.540Z,6.39
2019-03-02T05:37:54.763Z,6.37
2019-03-02T05:40:24.478Z,6.29
2019-03-02T05:42:55.178Z,6.25
2019-03-02T05:45:24.802Z,6.28
2019-03-02T05:47:54.151Z,6.32
2019-03-02T05:50:26.471Z,6.27
2019-03-02T05:52:55.320Z,6.26
2019-03-02T05:55:25.557Z,6.28
2019-03-02T05:57:54.959Z,6.27
2019-03-02T06:00:24.409Z,6.30
2019-03-02T06:02:53.759Z,6.34
2019-03-02T06:05:23.367Z,6.36
2019-03-02T06:07:53.910Z,6.38
2019-03-02T06:10:25.271Z,6.47
2019-03-02T06:12:55.440Z,6.52
2019-03-02T06:15:24.627Z,6.45
2019-03-02T06:17:53.885Z,6.45
2019-03-02T06:20:23.121Z,6.36
2019-03-02T06:22:55.551Z,6.44
2019-03-02T06:25:23.851Z,6.48
2019-03-02T06:27:53.041Z,6.54
2019-03-02T06:30:22.351Z,6.48
2019-03-02T06:32:51.549Z,6.49
2019-03-02T06:35:20.812Z,6.51
2019-03-02T06:37:53.034Z,6.53
2019-03-02T06:40:23.697Z,6.45
2019-03-02T06:43:11.221Z,6.56
2019-03-02T06:45:43.509Z,6.50
2019-03-02T06:48:11.825Z,6.50
2019-03-02T06:50:42.245Z,6.54
2019-03-02T06:53:11.529Z,6.52
2019-03-02T06:55:41.064Z,6.45
2019-03-02T06:58:10.293Z,6.54
2019-03-02T07:00:41.019Z,6.53
2019-03-02T07:03:11.135Z,6.59
2019-03-02T07:05:40.528Z,6.54
2019-03-02T07:08:12.246Z,6.42
2019-03-02T07:11:00.585Z,6.52
2019-03-02T07:13:32.533Z,6.52
2019-03-02T07:16:02.323Z,6.62
2019-03-02T07:21:30.611Z,6.67
2019-03-02T07:24:19.110Z,6.58
2019-03-02T07:26:51.573Z,6.54
2019-03-02T07:29:20.300Z,6.66
2019-03-02T07:31:49.637Z,6.78
2019-03-02T07:34:18.853Z,6.76
2019-03-02T07:39:43.729Z,6.87
2019-03-02T07:42:15.859Z,6.95
2019-03-02T07:47:34.742Z,6.99
2019-03-02T07:50:04.136Z,7.06
2019-03-02T07:52:33.361Z,7.19
2019-03-02T07:55:02.597Z,7.30
2019-03-02T07:57:54.116Z,7.31
2019-03-02T08:00:24.088Z,7.32
2019-03-02T08:02:53.376Z,7.37
2019-03-02T08:05:23.307Z,7.46
2019-03-02T08:07:52.649Z,7.40
2019-03-02T08:10:22.026Z,7.54
2019-03-02T08:12:53.253Z,7.57
2019-03-02T08:15:41.568Z,7.65
2019-03-02T08:18:14.500Z,7.65
2019-03-02T08:20:53.745Z,7.77
2019-03-02T08:29:06.087Z,7.80
2019-03-02T08:31:37.575Z,7.79
2019-03-02T08:34:09.727Z,7.91
2019-03-02T08:36:37.972Z,7.93
2019-03-02T08:39:10.711Z,8.00
2019-03-02T08:41:41.115Z,8.14
2019-03-02T08:44:10.925Z,8.05
2019-03-02T08:46:40.310Z,8.18
2019-03-02T08:49:12.790Z,8.22
2019-03-02T08:51:53.108Z,8.05
2019-03-02T08:54:22.514Z,8.17
2019-03-02T08:56:51.937Z,8.22
2019-03-02T08:59:21.542Z,8.29
2019-03-02T09:01:54.849Z,8.29
2019-03-02T09:04:25.111Z,8.32
2019-03-02T09:06:57.331Z,8.26
2019-03-02T09:09:28.302Z,8.15
2019-03-02T09:11:59.805Z,8.15
2019-03-02T09:14:29.078Z,8.22
2019-03-02T09:16:58.460Z,8.21
2019-03-02T09:19:27.770Z,8.28
2019-03-02T09:21:57.286Z,8.47
2019-03-02T09:24:28.376Z,8.52
2019-03-02T09:26:58.649Z,8.59
2019-03-02T09:29:28.091Z,8.64
2019-03-02T09:31:57.461Z,8.68
2019-03-02T09:34:28.551Z,8.70
2019-03-02T09:36:57.850Z,8.79
2019-03-02T09:39:27.085Z,8.79
2019-03-02T09:41:58.004Z,8.81
2019-03-02T09:44:27.264Z,8.92
2019-03-02T09:46:56.480Z,9.01
2019-03-02T09:49:25.997Z,9.11
2019-03-02T09:51:56.982Z,9.13
2019-03-02T09:54:26.430Z,9.06
2019-03-02T09:56:55.637Z,9.28
2019-03-02T09:59:24.879Z,9.26
2019-03-02T10:01:54.469Z,9.29
2019-03-02T10:04:23.743Z,9.30
2019-03-02T10:06:53.011Z,9.16
2019-03-02T10:09:24.884Z,9.26
2019-03-02T10:11:53.538Z,9.53
2019-03-02T10:17:20.494Z,9.59
2019-03-02T10:19:49.724Z,9.69
2019-03-02T10:22:19.792Z,9.72
2019-03-02T10:24:53.275Z,9.79
2019-03-02T10:27:22.427Z,9.94
2019-03-02T10:29:52.564Z,9.93
2019-03-02T10:32:22.277Z,9.86
2019-03-02T10:34:51.962Z,9.90
2019-03-02T10:37:21.216Z,10.04
2019-03-02T10:39:50.848Z,10.20
2019-03-02T10:42:20.082Z,10.01
2019-03-02T10:44:49.344Z,10.35
2019-03-02T10:47:18.563Z,10.58
2019-03-02T10:49:48.625Z,10.71
2019-03-02T10:52:18.816Z,11.07
2019-03-02T10:54:48.076Z,11.19
2019-03-02T10:57:17.299Z,10.95
2019-03-02T10:59:47.922Z,10.94
2019-03-02T11:02:20.044Z,10.91
2019-03-02T11:05:07.441Z,10.89
2019-03-02T11:07:56.027Z,10.88
2019-03-02T11:10:44.200Z,10.97
2019-03-02T11:13:20.663Z,11.09
2019-03-02T11:16:10.188Z,11.16
2019-03-02T11:18:58.423Z,11.14
2019-03-02T11:21:38.214Z,11.02
2019-03-02T11:24:16.937Z,11.04
2019-03-02T11:30:14.259Z,11.19
2019-03-02T11:33:02.412Z,11.44
2019-03-02T11:35:50.633Z,11.74
2019-03-02T11:38:40.424Z,11.49
2019-03-02T11:41:23.975Z,11.36
2019-03-02T11:44:12.196Z,11.64
2019-03-02T12:30:00.467Z,12.98
2019-03-02T12:32:48.609Z,12.71
2019-03-02T12:38:31.698Z,12.62
2019-03-02T12:52:30.657Z,12.09
2019-03-02T12:55:21.872Z,11.92
2019-03-02T12:58:05.346Z,11.87
2019-03-02T13:00:53.124Z,12.06
2019-03-02T13:09:25.296Z,11.91
2019-03-02T13:17:48.664Z,11.90
2019-03-02T13:28:46.328Z,12.08
2019-03-02T13:31:35.149Z,12.17
2019-03-02T13:34:12.662Z,12.33
2019-03-02T13:37:01.386Z,12.39
2019-03-02T13:39:51.207Z,12.23
2019-03-02T13:44:58.084Z,12.06
2019-03-02T13:47:38.666Z,11.91
2019-03-02T13:50:25.309Z,12.01
2019-03-02T13:53:01.572Z,11.93
2019-03-02T13:55:39.698Z,11.98
2019-03-02T13:58:18.149Z,12.02
2019-03-02T14:00:58.622Z,12.08
2019-03-02T14:03:50.817Z,12.10
2019-03-02T14:09:16.279Z,12.14
2019-03-02T14:12:05.304Z,12.21
2019-03-02T14:14:53.747Z,12.37
2019-03-02T14:17:29.758Z,12.43
2019-03-02T14:20:24.843Z,12.53
2019-03-02T14:23:11.282Z,12.58
2019-03-02T14:28:55.587Z,12.16
2019-03-02T14:37:32.982Z,12.12
2019-03-02T14:51:24.443Z,11.73
2019-03-02T14:59:46.807Z,11.51
2019-03-02T15:10:29.312Z,11.55
2019-03-02T15:13:17.963Z,11.56
2019-03-02T15:19:06.587Z,11.43
2019-03-02T15:21:44.384Z,11.41
2019-03-02T15:24:31.647Z,11.38
2019-03-02T15:27:20.363Z,11.35
2019-03-02T15:30:09.767Z,11.41
2019-03-02T15:32:58.848Z,11.30
2019-03-02T15:35:49.282Z,11.34
2019-03-02T15:41:53.850Z,11.29
2019-03-02T15:50:17.537Z,11.58
2019-03-02T15:53:06.563Z,11.54
2019-03-02T15:55:54.668Z,11.38
2019-03-02T15:58:45.245Z,11.40
2019-03-02T16:01:32.932Z,11.21
2019-03-02T16:04:22.268Z,11.11
2019-03-02T16:10:11.623Z,11.06
2019-03-02T16:15:54.872Z,11.03
2019-03-02T16:18:43.022Z,10.98
2019-03-02T16:21:31.393Z,10.84
2019-03-02T16:27:15.932Z,10.87
2019-03-02T16:30:04.060Z,10.88
2019-03-02T16:32:55.433Z,10.85
2019-03-02T16:40:54.141Z,10.73
2019-03-02T16:46:18.573Z,10.67
2019-03-02T16:49:09.316Z,10.70
2019-03-02T16:57:18.842Z,10.52
2019-03-02T16:59:57.006Z,10.52
2019-03-02T17:02:45.191Z,10.44
2019-03-02T17:05:33.305Z,10.45
2019-03-02T17:17:20.761Z,10.36
2019-03-02T17:25:49.427Z,10.25
2019-03-02T17:28:39.070Z,10.26
2019-03-02T17:31:18.386Z,10.26
2019-03-02T17:48:05.675Z,10.18
2019-03-02T17:50:58.351Z,10.19
2019-03-02T17:53:43.795Z,10.19
2019-03-02T17:56:31.994Z,10.19
2019-03-02T17:59:12.846Z,10.19
2019-03-02T18:02:00.955Z,10.21
2019-03-02T18:04:49.413Z,10.16
2019-03-02T18:07:37.844Z,10.20
2019-03-02T18:10:26.469Z,10.21
2019-03-02T18:13:14.589Z,10.25
2019-03-02T18:16:05.826Z,10.29
2019-03-02T18:21:22.557Z,10.24
2019-03-02T18:23:55.877Z,10.31
2019-03-02T18:26:42.719Z,10.33
2019-03-02T18:29:13.633Z,10.35
2019-03-02T18:34:42.805Z,10.40
2019-03-02T18:37:12.258Z,10.38
2019-03-02T18:40:02.373Z,10.38
2019-03-02T18:42:32.249Z,10.43
2019-03-02T18:45:04.332Z,10.42
2019-03-02T18:47:32.992Z,10.40
2019-03-02T18:50:25.056Z,10.41
2019-03-02T18:53:02.698Z,10.38
2019-03-02T18:55:32.709Z,10.40
2019-03-02T18:58:02.212Z,10.47
2019-03-02T19:00:54.115Z,10.49
2019-03-02T19:03:24.829Z,10.43
2019-03-02T19:06:12.462Z,10.43
2019-03-02T19:08:41.962Z,10.42
2019-03-02T19:11:11.214Z,10.38
2019-03-02T19:13:40.731Z,10.43
2019-03-02T19:16:11.771Z,10.44
2019-03-02T19:18:41.004Z,10.41
2019-03-02T19:21:10.252Z,10.40
2019-03-02T19:23:39.460Z,10.39
2019-03-02T19:26:09.341Z,10.36
2019-03-02T19:28:38.555Z,10.38
2019-03-02T19:31:07.809Z,10.42
2019-03-02T19:33:37.032Z,10.40
2019-03-02T19:36:06.859Z,10.39
2019-03-02T19:38:36.106Z,10.41
2019-03-02T19:41:05.863Z,10.38
2019-03-02T19:43:35.400Z,10.36
2019-03-02T19:48:53.884Z,10.33
2019-03-02T19:51:23.684Z,10.30
2019-03-02T19:53:53.285Z,10.29
2019-03-02T19:56:23.118Z,10.23
2019-03-02T19:58:52.687Z,10.23
2019-03-02T20:01:22.224Z,10.27
2019-03-02T20:03:51.504Z,10.24
2019-03-02T20:06:20.991Z,10.25
2019-03-02T20:08:50.795Z,10.23
2019-03-02T20:11:20.044Z,10.23
2019-03-02T20:13:49.304Z,10.23
2019-03-02T20:16:18.832Z,10.19
2019-03-02T20:18:48.096Z,10.17
2019-03-02T20:21:17.405Z,10.18
2019-03-02T20:23:46.704Z,10.20
2019-03-02T20:26:16.478Z,10.28
2019-03-02T20:28:46.114Z,10.28
2019-03-02T20:31:15.433Z,10.23
2019-03-02T20:33:44.753Z,10.19
2019-03-02T20:36:14.569Z,10.16
2019-03-02T20:38:43.872Z,10.16
2019-03-02T20:41:13.418Z,10.07
2019-03-02T20:43:42.718Z,10.07
2019-03-02T20:46:12.235Z,10.09
2019-03-02T20:48:41.794Z,10.00
2019-03-02T20:53:59.622Z,10.22
2019-03-02T20:56:28.895Z,10.29
2019-03-02T20:59:17.971Z,10.28
2019-03-02T21:01:47.530Z,10.19
2019-03-02T21:04:16.783Z,10.15
2019-03-02T21:06:45.971Z,10.19
2019-03-02T21:09:15.237Z,10.18
2019-03-02T21:11:44.742Z,10.24
2019-03-02T21:14:13.951Z,10.23
2019-03-02T21:16:43.414Z,10.28
2019-03-02T21:19:13.020Z,10.34
2019-03-02T21:21:42.896Z,10.32
2019-03-02T21:27:09.041Z,10.24
2019-03-02T21:29:38.723Z,10.33
2019-03-02T21:32:08.000Z,10.20
2019-03-02T21:34:37.219Z,10.08
2019-03-02T21:37:06.459Z,10.19
2019-03-02T21:39:35.729Z,10.14
2019-03-02T21:42:06.177Z,10.14
2019-03-02T21:44:35.684Z,10.19
2019-03-02T21:47:04.891Z,10.24
2019-03-02T21:49:34.264Z,10.19
2019-03-02T21:52:03.619Z,10.18
2019-03-02T21:54:33.245Z,10.15
2019-03-02T21:57:02.505Z,10.08
2019-03-02T21:59:32.583Z,9.93
2019-03-02T22:02:01.923Z,9.98
2019-03-02T22:04:31.389Z,9.97
2019-03-02T22:07:01.090Z,9.91
2019-03-02T22:09:30.432Z,9.85
2019-03-02T22:12:19.110Z,9.71
2019-03-02T22:14:48.617Z,9.71
2019-03-02T22:17:18.173Z,9.63
2019-03-02T22:19:47.479Z,9.46
2019-03-02T22:22:17.153Z,9.52
2019-03-02T22:24:46.386Z,9.31
2019-03-02T22:27:15.688Z,9.26
2019-03-02T22:29:45.431Z,9.23
2019-03-02T22:32:15.065Z,9.33
2019-03-02T22:34:44.262Z,9.22
2019-03-02T22:37:13.672Z,9.17
2019-03-02T22:39:42.984Z,9.13
2019-03-02T22:42:12.317Z,9.14
2019-03-02T22:44:41.520Z,9.12
2019-03-02T22:47:11.241Z,9.08
2019-03-02T22:49:40.861Z,9.03
2019-03-02T22:52:10.173Z,9.03
2019-03-02T22:54:39.459Z,8.90
2019-03-02T22:57:08.728Z,8.95
2019-03-02T23:00:17.667Z,8.87
2019-03-02T23:02:45.202Z,8.91
2019-03-02T23:05:14.414Z,8.85
2019-03-02T23:07:43.655Z,8.81
2019-03-02T23:10:12.887Z,8.91
2019-03-02T23:12:42.511Z,9.01
2019-03-02T23:15:11.739Z,8.97
2019-03-02T23:17:41.253Z,9.07
2019-03-02T23:20:10.470Z,9.19
2019-03-02T23:22:39.708Z,9.06
2019-03-02T23:25:08.937Z,9.07
2019-03-02T23:27:38.340Z,8.95
2019-03-02T23:30:08.065Z,9.02
2019-03-02T23:32:37.309Z,9.09
2019-03-02T23:35:06.882Z,9.06
2019-03-02T23:37:36.319Z,8.98
2019-03-02T23:40:44.916Z,8.86
2019-03-02T23:43:14.158Z,8.76
2019-03-02T23:45:43.657Z,8.94
2019-03-02T23:48:12.889Z,8.91
2019-03-02T23:50:42.415Z,8.92
2019-03-02T23:53:11.729Z,8.89
2019-03-02T23:55:41.634Z,8.88
2019-03-02T23:58:11.135Z,8.90
